Time;durP1;ratioP1;P1;durP2;ratioP2;P2;SDS_P1;SDS_P2;PMS_P1;PMS_P2;Temp;Humidity;BMP_temperature;BMP_pressure;BME280_temperature;BME280_humidity;BME280_pressure;Samples;Min_cycle;Max_cycle;Signal;HPM_P1;HPM_P2
2023/11/15 00:01:51;;;;;;;0.63;0.60;;;;;;;7.97;100.00;97166.25;6091152;19;20094;-76
2023/11/15 00:03:51;;;;;;;0.55;0.55;;;;;;;8.03;100.00;97157.22;6093051;19;20003;-76
2023/11/15 00:05:52;;;;;;;0.75;0.50;;;;;;;7.94;100.00;97172.53;6090024;19;20018;-76
2023/11/15 00:07:55;;;;;;;0.57;0.50;;;;;;;7.92;100.00;97178.44;6091806;19;20011;-76
2023/11/15 00:09:56;;;;;;;0.55;0.55;;;;;;;7.85;100.00;97189.44;6091332;19;20011;-75
2023/11/15 00:11:56;;;;;;;0.50;0.50;;;;;;;7.82;100.00;97206.75;6093234;19;20039;-76
2023/11/15 00:13:57;;;;;;;0.50;0.50;;;;;;;7.73;100.00;97217.34;6092346;19;20010;-76
2023/11/15 00:15:57;;;;;;;0.40;0.40;;;;;;;7.63;100.00;97232.66;6090191;19;20007;-76
2023/11/15 00:18:04;;;;;;;0.60;0.50;;;;;;;7.58;100.00;97230.28;6093134;19;20407;-75
2023/11/15 00:20:05;;;;;;;0.60;0.60;;;;;;;7.52;100.00;97226.31;6091482;19;20014;-76
2023/11/15 00:22:05;;;;;;;0.50;0.50;;;;;;;7.55;100.00;97242.06;6093086;19;20006;-76
2023/11/15 00:24:07;;;;;;;0.50;0.50;;;;;;;7.57;100.00;97242.47;6092551;19;20705;-76
2023/11/15 00:26:07;;;;;;;0.50;0.50;;;;;;;7.51;100.00;97246.75;6091236;19;20010;-76
2023/11/15 00:28:08;;;;;;;0.60;0.60;;;;;;;7.47;100.00;97246.75;6094218;19;20014;-76
2023/11/15 00:30:10;;;;;;;1.75;0.60;;;;;;;7.52;100.00;97256.59;6102006;19;20010;-76
2023/11/15 00:32:11;;;;;;;1.02;0.50;;;;;;;7.47;100.00;97254.22;6101292;19;19998;-76
2023/11/15 00:34:11;;;;;;;0.50;0.50;;;;;;;7.46;100.00;97260.91;6100032;19;20516;-76
2023/11/15 00:36:11;;;;;;;1.38;0.50;;;;;;;7.53;100.00;97270.00;6100961;19;20453;-75
2023/11/15 00:38:12;;;;;;;0.50;0.50;;;;;;;7.42;100.00;97280.16;6099888;19;20007;-76
2023/11/15 00:40:14;;;;;;;0.50;0.50;;;;;;;7.39;100.00;97280.94;6102099;19;20017;-76
2023/11/15 00:42:15;;;;;;;;;;;;;;;7.38;100.00;97295.88;6100165;19;20456;-76
2023/11/15 00:44:16;;;;;;;0.43;0.43;;;;;;;7.38;100.00;97295.06;6101197;19;19911;-76
2023/11/15 00:46:16;;;;;;;0.98;0.68;;;;;;;7.37;100.00;97296.25;6099274;19;20019;-76
2023/11/15 00:48:17;;;;;;;0.50;0.50;;;;;;;7.38;100.00;97295.88;6100218;19;20574;-76
2023/11/15 00:50:18;;;;;;;0.60;0.60;;;;;;;7.41;100.00;97297.84;6099313;19;20006;-76
2023/11/15 00:52:18;;;;;;;0.50;0.50;;;;;;;7.42;100.00;97304.13;6099107;19;20010;-76
2023/11/15 00:54:19;;;;;;;0.50;0.50;;;;;;;7.32;100.00;97317.44;6098314;19;20365;-76
2023/11/15 00:56:19;;;;;;;0.57;0.57;;;;;;;7.33;100.00;97309.97;6098749;19;20562;-76
2023/11/15 00:58:20;;;;;;;0.60;0.60;;;;;;;7.33;100.00;97316.25;6101996;19;20562;-76
2023/11/15 01:00:27;;;;;;;0.57;0.55;;;;;;;7.36;100.00;97319.41;6100316;19;20027;-76
2023/11/15 01:02:29;;;;;;;0.85;0.60;;;;;;;7.35;100.00;97326.09;6101320;19;20073;-76
2023/11/15 01:04:30;;;;;;;1.60;0.88;;;;;;;7.30;100.00;97332.78;6098210;19;20110;-76
2023/11/15 01:06:31;;;;;;;0.50;0.50;;;;;;;7.26;100.00;97340.97;6098396;19;20394;-76
2023/11/15 01:08:32;;;;;;;0.52;0.52;;;;;;;7.23;100.00;97339.00;6099836;19;20463;-76
2023/11/15 01:10:33;;;;;;;0.60;0.60;;;;;;;7.31;100.00;97342.59;6099469;19;20745;-76
2023/11/15 01:12:34;;;;;;;1.27;0.55;;;;;;;7.39;100.00;97346.19;6101066;19;20591;-76
2023/11/15 01:14:35;;;;;;;0.50;0.50;;;;;;;7.32;100.00;97349.66;6099599;19;20011;-76
2023/11/15 01:16:35;;;;;;;0.60;0.60;;;;;;;7.32;100.00;97355.19;6099860;19;20015;-76
2023/11/15 01:18:36;;;;;;;0.50;0.50;;;;;;;7.30;100.00;97352.03;6098014;19;20585;-76
2023/11/15 01:20:37;;;;;;;0.77;0.60;;;;;;;7.36;100.00;97369.72;6100669;19;20575;-76
2023/11/15 01:22:37;;;;;;;0.50;0.50;;;;;;;7.44;100.00;97371.34;6101588;19;20013;-76
2023/11/15 01:24:41;;;;;;;0.52;0.52;;;;;;;7.45;100.00;97372.97;6099708;19;20015;-76
2023/11/15 01:26:41;;;;;;;0.50;0.50;;;;;;;7.50;100.00;97377.28;6096217;19;20038;-76
2023/11/15 01:28:42;;;;;;;0.60;0.60;;;;;;;7.53;100.00;97379.28;6097955;19;20746;-76
2023/11/15 01:30:42;;;;;;;0.50;0.50;;;;;;;7.53;100.00;97374.59;6098221;19;20026;-76
2023/11/15 01:32:42;;;;;;;2.53;0.70;;;;;;;7.51;100.00;97378.88;6097748;19;20471;-75
2023/11/15 01:34:43;;;;;;;0.60;0.60;;;;;;;7.55;100.00;97383.25;6099863;19;20615;-76
2023/11/15 01:36:46;;;;;;;0.55;0.55;;;;;;;7.52;100.00;97381.22;6099938;19;20463;-76
2023/11/15 01:38:47;;;;;;;0.40;0.40;;;;;;;7.58;100.00;97392.69;6099338;19;20339;-76
2023/11/15 01:40:48;;;;;;;0.50;0.50;;;;;;;7.57;100.00;97396.59;6100925;19;20007;-75
2023/11/15 01:42:49;;;;;;;0.60;0.60;;;;;;;7.58;100.00;97404.47;6100268;19;20023;-76
2023/11/15 01:44:49;;;;;;;0.52;0.52;;;;;;;7.64;100.00;97410.41;6100469;19;20013;-76
2023/11/15 01:46:52;;;;;;;1.35;0.63;;;;;;;7.67;100.00;97428.13;6096428;19;20014;-76
2023/11/15 01:48:52;;;;;;;1.52;0.70;;;;;;;7.65;100.00;97431.25;6097102;19;20014;-76
2023/11/15 01:50:53;;;;;;;0.85;0.60;;;;;;;7.67;100.00;97428.13;6100102;19;20006;-76
2023/11/15 01:52:55;;;;;;;0.70;0.70;;;;;;;7.58;100.00;97436.72;6097918;19;20031;-76
2023/11/15 01:54:56;;;;;;;0.60;0.60;;;;;;;7.54;100.00;97430.41;6100581;19;20006;-76
2023/11/15 01:56:57;;;;;;;0.52;0.52;;;;;;;7.50;100.00;97437.84;6097516;19;20006;-76
2023/11/15 01:58:58;;;;;;;0.52;0.52;;;;;;;7.52;100.00;97443.75;6100471;19;20580;-76
2023/11/15 02:01:00;;;;;;;0.60;0.60;;;;;;;7.51;100.00;97453.97;6096980;19;20094;-76
2023/11/15 02:03:01;;;;;;;2.00;0.70;;;;;;;7.54;100.00;97464.22;6098696;19;20010;-76
2023/11/15 02:05:01;;;;;;;0.75;0.60;;;;;;;7.57;100.00;97468.19;6097232;19;20381;-76
2023/11/15 02:07:02;;;;;;;0.50;0.50;;;;;;;7.60;100.00;97464.66;6098309;19;20003;-76
2023/11/15 02:09:05;;;;;;;0.60;0.60;;;;;;;7.63;100.00;97477.66;6097113;19;20017;-75
2023/11/15 02:11:05;;;;;;;;;;;;;;;7.62;100.00;97483.56;6100129;19;20010;-76
2023/11/15 02:13:23;;;;;;;1.08;0.77;;;;;;;7.53;100.00;97476.41;6099938;19;19911;-76
2023/11/15 02:15:23;;;;;;;0.57;0.57;;;;;;;7.53;100.00;97489.38;6102937;19;20434;-76
2023/11/15 02:17:23;;;;;;;0.70;0.70;;;;;;;7.54;100.00;97493.72;6100025;19;20007;-76
2023/11/15 02:19:24;;;;;;;0.60;0.60;;;;;;;7.49;100.00;97496.81;6104744;19;20025;-76
2023/11/15 02:21:24;;;;;;;1.17;0.70;;;;;;;7.48;100.00;97500.75;6105082;19;20011;-76
2023/11/15 02:23:27;;;;;;;0.60;0.60;;;;;;;7.45;100.00;97501.53;6104272;19;20400;-76
2023/11/15 02:25:27;;;;;;;0.60;0.60;;;;;;;7.49;100.00;97503.13;6104340;19;20548;-75
2023/11/15 02:27:27;;;;;;;0.80;0.80;;;;;;;7.44;100.00;97508.16;6103633;19;20040;-76
2023/11/15 02:29:28;;;;;;;0.70;0.70;;;;;;;7.39;100.00;97503.03;6103814;19;20017;-76
2023/11/15 02:31:28;;;;;;;2.90;1.00;;;;;;;7.35;100.00;97505.75;6101874;19;20010;-76
2023/11/15 02:33:29;;;;;;;2.05;0.93;;;;;;;7.38;100.00;97517.97;6102377;19;20010;-76
2023/11/15 02:35:30;;;;;;;1.85;1.00;;;;;;;7.37;100.00;97517.19;6102113;19;20227;-76
2023/11/15 02:37:31;;;;;;;1.00;0.90;;;;;;;7.39;100.00;97517.59;6102611;19;20021;-76
2023/11/15 02:39:31;;;;;;;0.93;0.85;;;;;;;7.42;100.00;97516.81;6103985;19;20007;-76
2023/11/15 02:41:31;;;;;;;2.42;1.42;;;;;;;7.43;100.00;97520.34;6099623;19;20013;-76
2023/11/15 02:43:32;;;;;;;1.10;1.00;;;;;;;7.51;100.00;97522.78;6101356;19;20041;-76
2023/11/15 02:45:33;;;;;;;1.30;1.00;;;;;;;7.54;100.00;97522.03;6103282;19;20066;-76
2023/11/15 02:47:33;;;;;;;1.42;1.25;;;;;;;7.57;100.00;97526.78;6099026;19;20483;-76
2023/11/15 02:49:34;;;;;;;2.10;0.90;;;;;;;7.56;100.00;97536.19;6100650;19;20002;-77
2023/11/15 02:51:35;;;;;;;1.63;0.98;;;;;;;7.59;100.00;97540.94;6103054;19;20667;-76
2023/11/15 02:53:36;;;;;;;1.00;0.90;;;;;;;7.67;100.00;97539.03;6103489;19;20070;-76
2023/11/15 02:55:36;;;;;;;1.20;1.10;;;;;;;7.73;100.00;97540.28;6103043;19;20006;-76
2023/11/15 02:57:37;;;;;;;0.90;0.80;;;;;;;7.72;100.00;97533.19;6100617;19;20398;-76
2023/11/15 02:59:37;;;;;;;1.00;0.82;;;;;;;7.71;100.00;97541.84;6102298;19;20474;-76
2023/11/15 03:01:47;;;;;;;1.02;0.82;;;;;;;7.75;100.00;97542.63;6101396;19;20025;-76
2023/11/15 03:03:48;;;;;;;0.98;0.80;;;;;;;7.69;100.00;97531.19;6103988;19;20007;-76
2023/11/15 03:05:48;;;;;;;1.38;0.80;;;;;;;7.73;100.00;97533.97;6101551;19;20533;-76
2023/11/15 03:07:48;;;;;;;1.33;0.90;;;;;;;7.69;100.00;97533.94;6102540;19;20322;-76
2023/11/15 03:09:49;;;;;;;1.00;0.85;;;;;;;7.71;100.00;97536.31;6102890;19;20011;-76
2023/11/15 03:11:49;;;;;;;1.00;0.80;;;;;;;7.70;100.00;97534.75;6102792;19;20017;-76
2023/11/15 03:13:49;;;;;;;2.25;1.00;;;;;;;7.67;100.00;97552.00;6101944;19;20014;-76
2023/11/15 03:15:50;;;;;;;2.88;1.10;;;;;;;7.64;100.00;97561.84;6100144;19;20011;-76
2023/11/15 03:17:50;;;;;;;0.93;0.70;;;;;;;7.62;100.00;97564.19;6102379;19;20513;-76
2023/11/15 03:19:51;;;;;;;2.10;1.00;;;;;;;7.73;100.00;97564.25;6100395;19;20010;-76
2023/11/15 03:21:51;;;;;;;3.40;0.80;;;;;;;7.72;100.00;97570.94;6099265;19;20563;-76
2023/11/15 03:23:51;;;;;;;1.73;0.80;;;;;;;7.75;100.00;97570.16;6100348;19;20490;-76
2023/11/15 03:25:52;;;;;;;1.90;1.00;;;;;;;7.74;100.00;97580.41;6099474;19;20455;-76
2023/11/15 03:27:53;;;;;;;1.83;1.00;;;;;;;7.73;100.00;97578.03;6091675;19;19999;-76
2023/11/15 03:29:54;;;;;;;2.75;0.85;;;;;;;7.71;100.00;97572.91;6099626;19;20002;-76
2023/11/15 03:31:54;;;;;;;1.17;0.88;;;;;;;7.75;100.00;97578.44;6103585;19;20026;-76
2023/11/15 03:33:54;;;;;;;1.00;0.90;;;;;;;7.80;100.00;97597.38;6101538;19;20270;-76
2023/11/15 03:35:55;;;;;;;0.73;0.70;;;;;;;7.75;100.00;97601.25;6100546;19;20023;-76
2023/11/15 03:37:56;;;;;;;0.93;0.85;;;;;;;7.74;100.00;97602.44;6100800;19;20014;-75
2023/11/15 03:39:56;;;;;;;1.48;0.90;;;;;;;7.75;100.00;97592.19;6101416;19;20015;-76
2023/11/15 03:41:57;;;;;;;2.55;1.00;;;;;;;7.79;100.00;97599.34;6101573;19;20027;-75
2023/11/15 03:43:57;;;;;;;1.00;0.80;;;;;;;7.77;100.00;97598.09;6101322;19;20009;-75
2023/11/15 03:45:58;;;;;;;2.10;0.90;;;;;;;7.75;100.00;97600.47;6101279;19;20022;-76
2023/11/15 03:48:02;;;;;;;0.95;0.80;;;;;;;7.79;100.00;97606.81;6101385;19;20240;-75
2023/11/15 03:50:04;;;;;;;3.35;0.80;;;;;;;7.79;100.00;97601.28;6099401;19;20098;-75
2023/11/15 03:52:06;;;;;;;1.50;1.00;;;;;;;7.74;100.00;97609.91;6099838;19;20000;-76
2023/11/15 03:54:07;;;;;;;1.40;1.13;;;;;;;7.69;100.00;97611.03;6101984;19;20036;-76
2023/11/15 03:56:08;;;;;;;1.33;1.00;;;;;;;7.65;100.00;97606.66;6100055;19;19999;-75
2023/11/15 03:58:09;;;;;;;2.00;1.00;;;;;;;7.66;100.00;97614.53;6099047;19;20062;-76
2023/11/15 04:00:10;;;;;;;0.77;0.70;;;;;;;7.77;100.00;97609.13;6101098;19;20455;-75
2023/11/15 04:02:10;;;;;;;1.45;0.90;;;;;;;7.79;100.00;97613.09;6101761;19;20468;-75
2023/11/15 04:04:11;;;;;;;2.28;1.15;;;;;;;7.78;100.00;97613.50;6101400;19;20066;-75
2023/11/15 04:06:11;;;;;;;1.05;0.85;;;;;;;7.73;100.00;97622.88;6097686;19;20014;-75
2023/11/15 04:08:11;;;;;;;1.70;0.80;;;;;;;7.76;100.00;97633.13;6099867;19;20510;-76
2023/11/15 04:10:12;;;;;;;1.58;1.00;;;;;;;7.80;100.00;97639.47;6098663;19;20010;-75
2023/11/15 04:12:12;;;;;;;0.90;0.80;;;;;;;7.76;100.00;97632.31;6100896;19;20030;-75
2023/11/15 04:14:16;;;;;;;2.35;1.00;;;;;;;7.68;100.00;97634.22;6100319;19;19994;-75
2023/11/15 04:16:16;;;;;;;1.63;1.13;;;;;;;7.68;100.00;97638.94;6098840;19;20455;-75
2023/11/15 04:18:17;;;;;;;1.10;0.80;;;;;;;7.73;100.00;97646.88;6100434;19;20002;-76
2023/11/15 04:20:17;;;;;;;2.25;1.05;;;;;;;7.72;100.00;97645.28;6100930;19;19991;-76
2023/11/15 04:22:18;;;;;;;1.83;1.13;;;;;;;7.69;100.00;97657.81;6099682;19;20074;-75
2023/11/15 04:24:18;;;;;;;1.05;0.88;;;;;;;7.75;100.00;97658.28;6100628;19;20014;-75
2023/11/15 04:26:20;;;;;;;2.58;0.93;;;;;;;7.77;100.00;97658.69;6098683;19;20348;-75
2023/11/15 04:28:21;;;;;;;;;;;;;;;7.83;100.00;97670.94;6096687;19;20019;-76
2023/11/15 04:30:22;;;;;;;1.75;0.80;;;;;;;7.90;100.00;97673.78;6091698;19;19997;-75
2023/11/15 04:32:22;;;;;;;0.82;0.82;;;;;;;7.91;100.00;97669.84;6089771;19;20010;-75
2023/11/15 04:34:22;;;;;;;3.15;1.08;;;;;;;7.86;100.00;97673.75;6091644;19;20007;-75
2023/11/15 04:36:23;;;;;;;1.38;0.80;;;;;;;7.86;100.00;97668.25;6090174;19;20406;-75
2023/11/15 04:38:24;;;;;;;2.28;1.00;;;;;;;7.87;100.00;97677.28;6092698;19;20003;-75
2023/11/15 04:40:26;;;;;;;1.48;1.05;;;;;;;7.88;100.00;97676.91;6091768;19;20011;-75
2023/11/15 04:42:27;;;;;;;;;;;;;;;7.88;100.00;97679.66;6091650;19;20718;-75
2023/11/15 04:44:27;;;;;;;0.98;0.88;;;;;;;7.85;100.00;97671.34;6091420;19;19906;-76
2023/11/15 04:46:28;;;;;;;2.28;1.00;;;;;;;7.84;100.00;97689.84;6088915;19;20514;-75
2023/11/15 04:48:28;;;;;;;3.58;1.10;;;;;;;7.87;100.00;97680.84;6091037;19;20010;-75
2023/11/15 04:50:28;;;;;;;2.50;1.25;;;;;;;7.84;100.00;97683.53;6091779;19;20003;-75
2023/11/15 04:52:29;;;;;;;1.38;0.80;;;;;;;7.91;100.00;97700.13;6091935;19;20017;-75
2023/11/15 04:54:29;;;;;;;2.85;1.20;;;;;;;7.88;100.00;97698.94;6091673;19;20474;-75
2023/11/15 04:56:29;;;;;;;1.35;1.00;;;;;;;7.83;100.00;97706.75;6090576;19;20031;-75
2023/11/15 04:58:31;;;;;;;3.22;1.00;;;;;;;7.80;100.00;97708.31;6091848;19;20478;-75
2023/11/15 05:00:31;;;;;;;1.20;0.93;;;;;;;7.81;100.00;97712.63;6088785;19;20029;-75
2023/11/15 05:02:32;;;;;;;1.60;1.13;;;;;;;7.76;100.00;97712.97;6089093;19;20540;-76
2023/11/15 05:04:33;;;;;;;6.25;3.28;;;;;;;7.76;100.00;97714.94;6090889;19;20329;-75
2023/11/15 05:06:34;;;;;;;2.05;1.20;;;;;;;7.79;100.00;97711.44;6090918;19;20390;-75
2023/11/15 05:08:34;;;;;;;1.90;1.45;;;;;;;7.76;100.00;97710.22;6091203;19;20363;-75
2023/11/15 05:10:34;;;;;;;1.67;1.25;;;;;;;7.74;100.00;97723.56;6091196;19;20015;-75
2023/11/15 05:12:34;;;;;;;2.63;1.17;;;;;;;7.77;100.00;97733.81;6091631;19;20014;-75
2023/11/15 05:14:36;;;;;;;1.60;1.10;;;;;;;7.87;100.00;97738.69;6090984;19;20014;-76
2023/11/15 05:16:37;;;;;;;2.43;1.10;;;;;;;7.88;100.00;97720.97;6090994;19;20022;-75
2023/11/15 05:18:38;;;;;;;2.22;1.35;;;;;;;7.91;100.00;97729.66;6090133;19;20006;-76
2023/11/15 05:20:38;;;;;;;3.78;1.48;;;;;;;7.89;100.00;97733.56;6088820;19;20344;-76
2023/11/15 05:22:39;;;;;;;1.35;0.90;;;;;;;7.86;100.00;97737.09;6090312;19;20420;-75
2023/11/15 05:24:39;;;;;;;1.60;1.20;;;;;;;7.88;100.00;97743.00;6087600;19;20022;-76
2023/11/15 05:26:39;;;;;;;1.73;1.35;;;;;;;7.81;100.00;97748.44;6089700;19;20017;-75
2023/11/15 05:28:42;;;;;;;1.25;1.00;;;;;;;7.80;100.00;97762.59;6094007;19;20763;-75
2023/11/15 05:30:42;;;;;;;1.42;1.20;;;;;;;7.80;100.00;97755.13;6100292;19;20030;-75
2023/11/15 05:32:43;;;;;;;1.90;1.17;;;;;;;7.75;100.00;97752.69;6100015;19;20015;-75
2023/11/15 05:34:43;;;;;;;1.13;0.93;;;;;;;7.84;100.00;97766.94;6097889;19;20318;-75
2023/11/15 05:36:44;;;;;;;1.38;1.05;;;;;;;7.84;100.00;97775.22;6096973;19;20006;-75
2023/11/15 05:38:44;;;;;;;0.85;0.70;;;;;;;7.85;100.00;97779.56;6099234;19;20719;-75
2023/11/15 05:40:45;;;;;;;1.80;1.00;;;;;;;7.82;100.00;97779.53;6096482;19;20593;-75
2023/11/15 05:42:45;;;;;;;1.15;0.80;;;;;;;7.76;100.00;97783.78;6095360;19;20010;-75
2023/11/15 05:44:46;;;;;;;1.90;1.40;;;;;;;7.74;100.00;97792.41;6099081;19;20013;-75
2023/11/15 05:46:46;;;;;;;2.67;1.10;;;;;;;7.72;100.00;97783.75;6096962;19;20340;-75
2023/11/15 05:48:46;;;;;;;0.95;0.93;;;;;;;7.70;100.00;97796.31;6100003;19;20385;-76
2023/11/15 05:50:47;;;;;;;2.50;1.10;;;;;;;7.66;100.00;97804.50;6103727;19;20009;-75
2023/11/15 05:52:47;;;;;;;0.77;0.70;;;;;;;7.68;100.00;97813.19;6104312;19;20048;-75
2023/11/15 05:54:47;;;;;;;0.85;0.70;;;;;;;7.65;100.00;97811.19;6104209;19;20361;-75
2023/11/15 05:56:48;;;;;;;1.00;0.90;;;;;;;7.64;100.00;97817.88;6102248;19;20562;-75
2023/11/15 05:58:48;;;;;;;1.23;1.10;;;;;;;7.57;100.00;97826.03;6104587;19;20343;-75
2023/11/15 06:00:48;;;;;;;0.63;0.60;;;;;;;7.65;100.00;97837.94;6104802;19;20414;-76
2023/11/15 06:02:50;;;;;;;0.90;0.73;;;;;;;7.56;100.00;97827.22;6103881;19;20244;-75
2023/11/15 06:04:52;;;;;;;0.65;0.65;;;;;;;7.57;100.00;97824.06;6104640;19;20487;-75
2023/11/15 06:06:52;;;;;;;0.70;0.57;;;;;;;7.60;100.00;97830.78;6102689;19;20011;-75
2023/11/15 06:08:53;;;;;;;0.70;0.70;;;;;;;7.62;100.00;97838.69;6103605;19;20348;-75
2023/11/15 06:10:53;;;;;;;1.48;0.52;;;;;;;7.56;100.00;97838.22;6105213;19;20464;-75
2023/11/15 06:12:57;;;;;;;0.68;0.55;;;;;;;7.51;100.00;97833.03;6102509;19;20510;-75
2023/11/15 06:14:57;;;;;;;1.77;0.70;;;;;;;7.48;100.00;97833.78;6102558;19;20009;-75
2023/11/15 06:16:57;;;;;;;0.50;0.50;;;;;;;7.44;100.00;97841.19;6103779;19;20066;-75
2023/11/15 06:18:58;;;;;;;1.30;0.70;;;;;;;7.49;100.00;97849.13;6104958;19;20332;-75
2023/11/15 06:20:58;;;;;;;0.77;0.65;;;;;;;7.52;100.00;97862.13;6104278;19;20011;-75
2023/11/15 06:22:58;;;;;;;2.53;0.70;;;;;;;7.48;100.00;97848.34;6103267;19;20071;-75
2023/11/15 06:24:59;;;;;;;1.00;0.60;;;;;;;7.49;100.00;97855.44;6102798;19;20011;-75
2023/11/15 06:26:59;;;;;;;0.60;0.60;;;;;;;7.52;100.00;97849.16;6102358;19;20663;-75
2023/11/15 06:28:59;;;;;;;0.85;0.60;;;;;;;7.57;100.00;97859.06;6103183;19;20161;-75
2023/11/15 06:31:00;;;;;;;1.58;0.63;;;;;;;7.52;100.00;97851.13;6104866;19;20804;-75
2023/11/15 06:33:00;;;;;;;2.70;1.10;;;;;;;7.52;100.00;97859.38;6105887;19;20034;-75
2023/11/15 06:35:00;;;;;;;1.50;0.90;;;;;;;7.51;100.00;97861.34;6105316;19;20081;-75
2023/11/15 06:37:01;;;;;;;0.90;0.77;;;;;;;7.52;100.00;97868.44;6102105;19;20010;-75
2023/11/15 06:39:08;;;;;;;0.70;0.68;;;;;;;7.56;100.00;97871.25;6104902;19;20018;-75
2023/11/15 06:41:08;;;;;;;0.85;0.70;;;;;;;7.58;100.00;97877.16;6106286;19;20022;-75
2023/11/15 06:43:09;;;;;;;10.95;1.23;;;;;;;7.65;100.00;97871.75;6103082;19;20003;-75
2023/11/15 06:45:10;;;;;;;0.80;0.65;;;;;;;7.59;100.00;97870.50;6103666;19;20031;-75
2023/11/15 06:47:10;;;;;;;1.23;1.02;;;;;;;7.62;100.00;97869.78;6103978;19;20423;-75
2023/11/15 06:49:10;;;;;;;1.60;0.98;;;;;;;7.67;100.00;97888.69;6104091;19;20074;-74
2023/11/15 06:51:11;;;;;;;1.75;0.88;;;;;;;7.64;100.00;97878.44;6104413;19;20014;-75
2023/11/15 06:53:13;;;;;;;1.38;0.90;;;;;;;7.63;100.00;97882.38;6104587;19;20007;-75
2023/11/15 06:55:13;;;;;;;0.68;0.63;;;;;;;7.56;100.00;97891.31;6105471;19;20006;-75
2023/11/15 06:57:14;;;;;;;0.80;0.60;;;;;;;7.54;100.00;97887.34;6102160;19;20038;-75
2023/11/15 06:59:17;;;;;;;1.27;1.10;;;;;;;7.54;100.00;97901.13;6103843;19;20530;-75
2023/11/15 07:01:18;;;;;;;2.38;1.67;;;;;;;7.52;100.00;97895.16;6105339;19;20003;-75
2023/11/15 07:03:19;;;;;;;1.30;0.98;;;;;;;7.53;100.00;97892.06;6104483;19;20474;-75
2023/11/15 07:05:19;;;;;;;1.25;1.00;;;;;;;7.52;100.00;97895.16;6102819;19;20229;-75
2023/11/15 07:07:19;;;;;;;1.10;0.70;;;;;;;7.60;100.00;97896.84;6100132;19;20002;-75
2023/11/15 07:09:20;;;;;;;1.00;0.90;;;;;;;7.62;100.00;97902.00;6102852;19;20018;-75
2023/11/15 07:11:21;;;;;;;1.00;0.90;;;;;;;7.67;100.00;97915.44;6103094;19;20017;-75
2023/11/15 07:13:22;;;;;;;2.45;0.82;;;;;;;7.63;100.00;97907.16;6102602;19;20518;-75
2023/11/15 07:15:23;;;;;;;3.20;1.90;;;;;;;7.67;100.00;97924.50;6103853;19;20316;-75
2023/11/15 07:17:23;;;;;;;3.45;1.98;;;;;;;7.72;100.00;97926.16;6101901;19;20010;-75
2023/11/15 07:19:25;;;;;;;5.18;2.70;;;;;;;7.79;100.00;97921.53;6102990;19;20021;-75
2023/11/15 07:21:25;;;;;;;10.13;5.57;;;;;;;7.82;100.00;97925.50;6100408;19;20018;-75
2023/11/15 07:23:26;;;;;;;9.20;4.63;;;;;;;7.84;100.00;97929.44;6103673;19;20030;-75
2023/11/15 07:25:27;;;;;;;11.38;6.10;;;;;;;7.85;100.00;97922.78;6103886;19;20069;-75
2023/11/15 07:27:28;;;;;;;5.32;3.75;;;;;;;7.83;100.00;97940.84;6102682;19;20094;-75
2023/11/15 07:29:30;;;;;;;4.32;2.67;;;;;;;7.86;100.00;97943.66;6103844;19;20014;-75
2023/11/15 07:31:30;;;;;;;2.58;1.30;;;;;;;7.82;100.00;97953.03;6104197;19;20010;-75
2023/11/15 07:33:30;;;;;;;5.18;3.15;;;;;;;7.91;100.00;97952.75;6103849;19;20010;-75
2023/11/15 07:35:33;;;;;;;1.60;1.50;;;;;;;7.92;100.00;97962.59;6103621;19;20007;-75
2023/11/15 07:37:35;;;;;;;1.95;1.08;;;;;;;7.91;100.00;97961.00;6102382;19;20345;-75
2023/11/15 07:39:35;;;;;;;1.65;1.40;;;;;;;7.95;100.00;97961.88;6103514;19;20089;-75
2023/11/15 07:41:36;;;;;;;1.85;1.02;;;;;;;7.88;100.00;97968.88;6103985;19;20023;-75
2023/11/15 07:43:36;;;;;;;2.00;0.80;;;;;;;7.96;100.00;97969.75;6103080;19;20048;-75
2023/11/15 07:45:38;;;;;;;1.50;1.27;;;;;;;7.89;100.00;97966.91;6104183;19;20027;-75
2023/11/15 07:47:38;;;;;;;4.65;1.27;;;;;;;7.98;100.00;97977.66;6101970;19;20007;-74
2023/11/15 07:49:39;;;;;;;3.70;1.30;;;;;;;8.03;100.00;97985.59;6103438;19;20006;-75
2023/11/15 07:51:39;;;;;;;2.90;1.83;;;;;;;8.07;100.00;97989.97;6102096;19;20519;-75
2023/11/15 07:53:40;;;;;;;2.45;1.55;;;;;;;8.09;100.00;97987.63;6102909;19;20026;-75
2023/11/15 07:55:40;;;;;;;2.33;1.50;;;;;;;8.11;100.00;97996.34;6103436;19;20515;-75
2023/11/15 07:57:41;;;;;;;2.35;1.70;;;;;;;8.21;100.00;97997.63;6101338;19;20011;-75
2023/11/15 07:59:42;;;;;;;2.65;1.80;;;;;;;8.21;100.00;98000.41;6103675;19;20011;-75
2023/11/15 08:01:42;;;;;;;2.10;1.45;;;;;;;8.21;100.00;97997.63;6102348;19;20003;-75
2023/11/15 08:03:42;;;;;;;4.28;2.05;;;;;;;8.22;100.00;98004.75;6102870;19;20346;-75
2023/11/15 08:05:43;;;;;;;6.53;2.72;;;;;;;8.27;100.00;98004.41;6103037;19;20011;-75
2023/11/15 08:07:43;;;;;;;1.83;1.20;;;;;;;8.30;100.00;98013.91;6101625;19;20016;-75
2023/11/15 08:09:46;;;;;;;5.95;1.83;;;;;;;8.34;100.00;98011.97;6103009;19;20044;-75
2023/11/15 08:11:46;;;;;;;4.28;1.80;;;;;;;8.38;100.00;98013.63;6100642;19;20011;-75
2023/11/15 08:13:46;;;;;;;2.35;1.23;;;;;;;8.39;100.00;98017.97;6102756;19;20038;-75
2023/11/15 08:15:47;;;;;;;1.60;0.95;;;;;;;8.40;100.00;98018.78;6101356;19;20042;-74
2023/11/15 08:17:48;;;;;;;1.42;0.80;;;;;;;8.39;100.00;98020.75;6101501;19;20010;-75
2023/11/15 08:19:48;;;;;;;0.85;0.80;;;;;;;8.35;100.00;98013.56;6102007;19;20010;-75
2023/11/15 08:21:49;;;;;;;1.30;1.05;;;;;;;8.39;100.00;98023.50;6102082;19;20070;-75
2023/11/15 08:23:49;;;;;;;2.58;1.80;;;;;;;8.44;100.00;98023.19;6101001;19;20018;-75
2023/11/15 08:25:51;;;;;;;5.88;1.15;;;;;;;8.41;100.00;98029.41;6101393;19;20070;-75
2023/11/15 08:27:52;;;;;;;1.33;0.98;;;;;;;8.44;100.00;98030.66;6092142;19;20441;-76
2023/11/15 08:29:52;;;;;;;1.90;1.17;;;;;;;8.50;100.00;98028.34;6101508;19;20345;-75
2023/11/15 08:31:53;;;;;;;3.05;1.20;;;;;;;8.52;100.00;98034.25;6100719;19;20247;-75
2023/11/15 08:33:53;;;;;;;1.08;0.98;;;;;;;8.52;100.00;98035.06;6100577;19;20005;-75
2023/11/15 08:35:54;;;;;;;1.10;1.00;;;;;;;8.48;100.00;98036.19;6099732;19;20522;-75
2023/11/15 08:37:54;;;;;;;1.38;0.90;;;;;;;8.57;100.00;98050.50;6099017;19;20549;-75
2023/11/15 08:39:54;;;;;;;2.13;1.30;;;;;;;8.60;100.00;98041.47;6100944;19;20350;-75
2023/11/15 08:41:55;;;;;;;1.38;1.27;;;;;;;8.62;100.00;98045.44;6101741;19;20030;-75
2023/11/15 08:43:56;;;;;;;1.23;1.10;;;;;;;8.65;100.00;98047.44;6100228;19;20013;-75
2023/11/15 08:45:57;;;;;;;3.08;1.20;;;;;;;8.63;100.00;98044.28;6098074;19;20512;-75
2023/11/15 08:47:57;;;;;;;1.10;1.00;;;;;;;8.62;100.00;98045.44;6099940;19;20446;-75
2023/11/15 08:49:58;;;;;;;0.85;0.85;;;;;;;8.68;100.00;98054.16;6100582;19;20014;-75
2023/11/15 08:51:58;;;;;;;2.45;1.10;;;;;;;8.73;100.00;98054.63;6100486;19;20006;-75
2023/11/15 08:53:59;;;;;;;1.67;1.20;;;;;;;8.85;100.00;98059.09;6100899;19;20007;-75
2023/11/15 08:56:02;;;;;;;3.28;1.20;;;;;;;8.98;100.00;98063.19;6099557;19;20499;-75
2023/11/15 08:58:02;;;;;;;2.20;0.90;;;;;;;9.05;100.00;98062.50;6099786;19;20007;-74
2023/11/15 09:00:06;;;;;;;3.33;1.10;;;;;;;9.14;100.00;98059.44;6099638;19;20062;-75
2023/11/15 09:02:08;;;;;;;2.53;1.00;;;;;;;9.19;100.00;98065.41;6101297;19;20002;-75
2023/11/15 09:04:12;;;;;;;3.00;1.23;;;;;;;9.25;100.00;98063.06;6100570;19;20006;-75
2023/11/15 09:06:14;;;;;;;2.92;1.80;;;;;;;9.28;100.00;98062.34;6100144;19;20019;-75
2023/11/15 09:08:14;;;;;;;1.38;0.77;;;;;;;9.29;100.00;98055.63;6099271;19;20010;-75
2023/11/15 09:10:15;;;;;;;1.05;0.82;;;;;;;9.38;100.00;98069.91;6100697;19;20014;-75
2023/11/15 09:12:17;;;;;;;5.22;2.28;;;;;;;9.39;100.00;98057.69;6100836;19;20545;-75
2023/11/15 09:14:18;;;;;;;;;;;;;;;9.35;100.00;98064.34;6101928;19;20013;-74
2023/11/15 09:16:19;;;;;;;2.88;1.20;;;;;;;9.37;100.00;98073.06;6099410;19;20293;-75
2023/11/15 09:18:23;;;;;;;8.40;1.75;;;;;;;9.36;100.00;98072.28;6100336;19;20498;-75
2023/11/15 09:20:27;;;;;;;2.13;1.25;;;;;;;9.40;100.00;98073.09;6101178;19;21127;-75
2023/11/15 09:22:33;;;;;;;4.80;3.13;;;;;;;9.40;100.00;98072.28;6099277;19;20528;-75
2023/11/15 09:24:33;;;;;;;6.30;3.30;;;;;;;9.41;100.00;98071.13;6099333;19;20034;-75
2023/11/15 09:26:35;;;;;;;3.33;2.30;;;;;;;9.36;100.00;98069.50;6098745;19;20006;-74
2023/11/15 09:28:36;;;;;;;3.45;2.10;;;;;;;9.35;100.00;98067.94;6093433;19;20015;-75
2023/11/15 09:30:39;;;;;;;2.97;1.65;;;;;;;9.39;100.00;98071.50;6092330;19;20991;-75